Flight Track Log - Related Links

Times and Time Zones

All times are in EDT time to prevent confusion due to time zone crossing. See the N865JM flight status page for this flight to view local times or setup timezone preferences in your user account.

Time Position Orientation Groundspeed Altitude Reporting Facility
EDT Latitude Longitude Course Direction KTS MPH feet Rate Location/Type
Sat 11:51:03 AM 28.5333 -81.3500 246° West 196 226 600  Level Orlando TRACON
Sat 11:52:27 AM 28.5000 -81.4333 246° West 229 264 4,100 3,083 Climbing Orlando TRACON
Sat 11:53:27 AM 28.5333 -81.5000 300° West 264 304 8,000 3,523 Climbing Orlando TRACON
Sat 11:54:16 AM 28.6000 -81.5000 360° North 325 374 10,500 2,012 Climbing Orlando TRACON
Sat 11:56:14 AM 28.7994 -81.4617 10° North 354 407 13,600 1,584 Climbing Jacksonville Center
Sat 11:57:14 AM 28.9139 -81.4314 13° North 398 458 15,200 1,600 Climbing Jacksonville Center
Sat 11:58:14 AM 29.0344 -81.4036 11° North 420 483 16,800 2,000 Climbing Jacksonville Center
Sat 11:59:14 AM 29.1514 -81.3947 North 430 495 19,200 1,750 Climbing Jacksonville Center
Sat 12:00:14 PM 29.2725 -81.4047 356° North 415 478 20,300 1,100 Climbing Jacksonville Center
Sat 12:01:14 PM 29.3958 -81.4194 354° North 429 494 21,400 1,150 Climbing Jacksonville Center
Sat 12:02:14 PM 29.5192 -81.4319 355° North 440 506 22,600 1,100 Climbing Jacksonville Center
Sat 12:03:14 PM 29.6467 -81.4444 355° North 450 518 23,600 1,050 Climbing Jacksonville Center
Sat 12:04:14 PM 29.7761 -81.4592 354° North 455 524 24,700 1,150 Climbing Jacksonville Center
Sat 12:05:14 PM 29.9036 -81.4694 356° North 455 524 25,900 1,091 Climbing Jacksonville Center
Sat 12:06:15 PM 30.0292 -81.4819 355° North 455 524 26,900 942 Climbing Jacksonville Center
Sat 12:07:15 PM 30.1481 -81.4922 356° North 466 536 27,800 706 Climbing Jacksonville Center
Sat 12:08:14 PM 30.2794 -81.4733 North 461 531 28,300 500 Climbing Jacksonville Center
Sat 12:09:15 PM 30.4150 -81.4544 North 471 542 28,800 650 Climbing Jacksonville Center
Sat 12:10:14 PM 30.5506 -81.4381 North 482 555 29,600 908 Climbing Jacksonville Center
Sat 12:11:14 PM 30.6819 -81.4192 North 482 555 30,600 992 Climbing Jacksonville Center
Sat 12:12:15 PM 30.8153 -81.4000 North 482 555 31,600 1,450 Climbing Jacksonville Center
Sat 12:13:14 PM 30.9358 -81.3472 21° North 477 549 33,500 1,866 Climbing Jacksonville Center
Sat 12:14:14 PM 31.0433 -81.2681 32° Northeast 458 527 35,300 1,650 Climbing Jacksonville Center
Sat 12:15:14 PM 31.1447 -81.1911 33° Northeast 444 511 36,800 1,300 Climbing Jacksonville Center
Sat 12:16:14 PM 31.2481 -81.1139 33° Northeast 438 504 37,900 1,091 Climbing Jacksonville Center
Sat 12:17:15 PM 31.3553 -81.0292 34° Northeast 426 490 39,000 545 Climbing Jacksonville Center
Sat 12:18:15 PM 31.4525 -80.9589 32° Northeast 438 504 39,000  Level Jacksonville Center
Sat 12:19:14 PM 31.5575 -80.8764 34° Northeast 450 518 39,000  Level Jacksonville Center
Sat 12:20:14 PM 31.6814 -80.7833 33° Northeast 475 547 39,000  Level Jacksonville Center
Sat 12:21:14 PM 31.7844 -80.7050 33° Northeast 480 552 39,000  Level Jacksonville Center
Sat 12:22:15 PM 31.9081 -80.6092 33° Northeast 480 552 39,000  Level Jacksonville Center
Sat 12:23:15 PM 32.0089 -80.5356 32° Northeast 475 547 39,000  Level Jacksonville Center
Sat 12:24:14 PM 32.1325 -80.4417 33° Northeast 475 547 39,000  Level Jacksonville Center
Sat 12:25:14 PM 32.2433 -80.3528 34° Northeast 475 547 39,000  Level Jacksonville Center
Sat 12:26:15 PM 32.3544 -80.2686 33° Northeast 475 547 39,000  Level Jacksonville Center
Sat 12:27:14 PM 32.4631 -80.1792 35° Northeast 475 547 39,000  Level Jacksonville Center
Sat 12:28:14 PM 32.5781 -80.0919 33° Northeast 481 554 39,000  Level Jacksonville Center
Sat 12:29:14 PM 32.6889 -80.0047 34° Northeast 481 554 39,000  Level Jacksonville Center
Sat 12:30:14 PM 32.7894 -79.9247 34° Northeast 481 554 39,000  Level Jacksonville Center
Sat 12:31:15 PM 32.9000 -79.8347 34° Northeast 481 554 39,000  Level Jacksonville Center
Sat 12:32:15 PM 33.0147 -79.7464 33° Northeast 481 554 39,000  Level Jacksonville Center
Sat 12:33:15 PM 33.1253 -79.6608 33° Northeast 481 554 39,000  Level Jacksonville Center
Sat 12:34:15 PM 33.2375 -79.5697 34° Northeast 481 554 39,000  Level Jacksonville Center
Sat 12:35:14 PM 33.3500 -79.4811 33° Northeast 476 548 39,000  Level Jacksonville Center
Sat 12:36:15 PM 33.4603 -79.3922 34° Northeast 476 548 39,000  Level Jacksonville Center
Sat 12:37:15 PM 33.5725 -79.3031 33° Northeast 476 548 39,000  Level Jacksonville Center
Sat 12:38:15 PM 33.6825 -79.2136 34° Northeast 476 548 39,000  Level Jacksonville Center
Sat 12:39:15 PM 33.8031 -79.1211 33° Northeast 467 537 39,000  Level Jacksonville Center
Sat 12:40:15 PM 33.9150 -79.0314 34° Northeast 472 543 39,000  Level Jacksonville Center
Sat 12:42:08 PM 34.1131 -78.8475 38° Northeast 466 536 39,000  Level Washington Center
Sat 12:43:08 PM 34.2203 -78.7389 40° Northeast 480 552 39,000  Level Washington Center
Sat 12:44:08 PM 34.3250 -78.6372 39° Northeast 485 558 39,000  Level Washington Center
Sat 12:45:06 PM 34.4300 -78.5303 40° Northeast 485 558 39,000  Level Washington Center
Sat 12:46:06 PM 34.5389 -78.4233 39° Northeast 490 564 39,000  Level Washington Center
Sat 12:47:07 PM 34.6436 -78.3183 40° Northeast 492 566 39,000  Level Washington Center
Sat 12:48:08 PM 34.7483 -78.2081 41° Northeast 492 566 39,000  Level Washington Center
Sat 12:49:08 PM 34.8508 -78.0925 43° Northeast 492 566 39,000  Level Washington Center
Sat 12:50:06 PM 34.9575 -77.9844 40° Northeast 492 566 39,000  Level Washington Center
Sat 12:51:07 PM 35.0639 -77.8758 40° Northeast 492 566 39,000  Level Washington Center
Sat 12:52:08 PM 35.1703 -77.7669 40° Northeast 492 566 39,000  Level Washington Center
Sat 12:53:06 PM 35.2767 -77.6556 41° Northeast 492 566 39,000  Level Washington Center
Sat 12:54:07 PM 35.3847 -77.5486 39° Northeast 492 566 39,000  Level Washington Center
Sat 12:55:08 PM 35.4992 -77.4494 35° Northeast 492 566 39,000  Level Washington Center
Sat 12:57:00 PM 35.6798 -77.2871 36° Northeast  Level FlightAware Approximate
Sat 01:04:00 PM 36.3572 -76.6751 36° Northeast  Level FlightAware Approximate
Sat 01:05:00 PM 36.4544 -76.5880 36° Northeast  Level FlightAware Approximate
Sat 01:06:00 PM 36.5515 -76.5006 36° Northeast  Level FlightAware Approximate
Sat 01:07:00 PM 36.6485 -76.4130 36° Northeast  Level FlightAware Approximate
Sat 01:08:00 PM 36.7455 -76.3252 36° Northeast  Level FlightAware Approximate
Sat 01:09:00 PM 36.8425 -76.2372 36° Northeast  Level FlightAware Approximate
Sat 01:10:00 PM 36.9464 -76.1640 24° Northeast  Level FlightAware Approximate
Sat 01:11:00 PM 37.0554 -76.1017 25° Northeast  Level FlightAware Approximate
Sat 01:12:00 PM 37.1652 -76.0415 22° Northeast  Level FlightAware Approximate
Sat 01:13:00 PM 37.2760 -75.9841 22° Northeast  Level FlightAware Approximate
Sat 01:14:00 PM 37.3868 -75.9265 22° Northeast  Level FlightAware Approximate
Sat 01:15:00 PM 37.4975 -75.8687 22° Northeast  Level FlightAware Approximate
Sat 01:15:07 PM 37.7769 -75.6364 31° Northeast 481 554 39,000  Level Washington Center
Sat 01:16:00 PM 37.6024 -75.7965 32° Northeast  Level FlightAware Approximate
Sat 01:16:06 PM 37.9000 -75.5628 25° Northeast 481 554 39,000  Level Washington Center
Sat 01:17:00 PM 37.7045 -75.7171 32° Northeast  Level FlightAware Approximate
Sat 01:17:08 PM 38.0231 -75.4889 25° Northeast 481 554 39,000  Level Washington Center
Sat 01:18:00 PM 37.8065 -75.6376 32° Northeast  Level FlightAware Approximate
Sat 01:18:06 PM 38.1481 -75.4122 26° Northeast 481 554 39,000  Level Washington Center
Sat 01:19:00 PM 37.9089 -75.5587 31° Northeast  Level FlightAware Approximate
Sat 01:19:07 PM 38.2731 -75.3353 26° Northeast 486 559 39,000  Level Washington Center
Sat 01:20:00 PM 38.0114 -75.4798 31° Northeast  Level FlightAware Approximate
Sat 01:20:08 PM 38.4061 -75.2500 27° Northeast 486 559 39,000  Level Washington Center
Sat 01:21:08 PM 38.5311 -75.1669 27° Northeast 486 559 39,000  Level Washington Center
Sat 01:22:06 PM 38.6578 -75.0867 26° Northeast 486 559 39,000  Level Washington Center
Sat 01:23:06 PM 38.7825 -75.0031 28° Northeast 492 566 39,000 -99 Level Washington Center
Sat 01:24:07 PM 38.9072 -74.9247 26° Northeast 492 566 38,800 -443 Descending Washington Center
Sat 01:25:08 PM 39.0358 -74.8406 27° Northeast 498 573 38,100 -1,765 Descending Washington Center
Sat 01:26:06 PM 39.1603 -74.7322 34° Northeast 514 592 35,300 -3,051 Descending Washington Center
Sat 01:27:06 PM 39.2803 -74.6103 38° Northeast 537 618 32,100 -3,074 Descending Washington Center
Sat 01:29:29 PM 39.5597 -74.3253 38° Northeast 532 612 24,900 -2,453 Descending New York Center
Sat 01:30:29 PM 39.6697 -74.2067 40° Northeast 526 605 23,800 -950 Descending New York Center
Sat 01:31:29 PM 39.7792 -74.0906 39° Northeast 520 598 23,000 -971 Descending New York Center
Sat 01:33:53 PM 40.0119 -73.8378 40° Northeast 474 545 20,500 -1,045 Descending Boston Center
Sat 01:34:50 PM 40.1133 -73.7261 40° Northeast 465 535 19,500 -974 Descending Boston Center
Sat 01:35:50 PM 40.2058 -73.6356 37° Northeast 465 535 18,600 -942 Descending Boston Center
Sat 01:36:51 PM 40.3092 -73.5258 39° Northeast 465 535 17,600 -843 Descending Boston Center
Sat 01:37:51 PM 40.4161 -73.4403 31° Northeast 465 535 16,900 -347 Descending Boston Center
Sat 01:38:52 PM 40.5333 -73.3983 15° North 439 505 16,900 -188 Level Boston Center
Sat 01:39:27 PM 40.6167 -73.3667 16° North 435 501 16,600 -947 Descending New York TRACON
Sat 01:40:27 PM 40.7333 -73.3333 12° North 445 512 15,400 -1,200 Descending New York TRACON
Sat 01:41:27 PM 40.8167 -73.2333 42° Northeast 398 458 14,200 -1,400 Descending New York TRACON
Sat 01:42:27 PM 40.8833 -73.1333 49° Northeast 407 468 12,600 -1,632 Descending New York TRACON
Sat 01:43:21 PM 40.9333 -73.0333 56° Northeast 344 396 11,100 -1,789 Descending New York TRACON
Sat 01:44:21 PM 41.0167 -73.0167 North 298 343 9,200 -1,950 Descending New York TRACON
Sat 01:45:21 PM 41.0833 -73.0667 331° Northwest 284 327 7,200 -2,000 Descending New York TRACON
Sat 01:46:21 PM 41.1167 -73.1667 294° West 267 307 5,200 -1,100 Descending New York TRACON
Sat 01:47:21 PM 41.1333 -73.2500 285° West 264 304 5,000 -450 Descending New York TRACON
Sat 01:48:21 PM 41.1500 -73.3500 283° West 260 299 4,300 -500 Descending New York TRACON
Sat 01:49:21 PM 41.1667 -73.4333 285° West 265 305 4,000 -150 Descending New York TRACON
Sat 01:50:21 PM 41.2000 -73.5167 298° West 229 264 4,000  Level New York TRACON
Sat 01:51:21 PM 41.2333 -73.5833 304° West 195 224 4,000  Level New York TRACON
Sat 01:52:21 PM 41.2667 -73.6333 312° West 186 214 4,000 -100 Level New York TRACON
Sat 01:53:21 PM 41.2833 -73.7000 288° West 192 221 3,800 -350 Descending New York TRACON
Sat 01:54:21 PM 41.3000 -73.7667 288° West 184 212 3,300 -400 Descending New York TRACON
Sat 01:55:21 PM 41.2833 -73.8333 252° West 182 209 3,000 -150 Descending New York TRACON
Sat 01:56:21 PM 41.2333 -73.8167 166° South 166 191 3,000 -300 Level New York TRACON
Sat 01:57:21 PM 41.1833 -73.8000 166° South 175 201 2,400 -450 Descending New York TRACON
Sat 01:58:21 PM 41.1500 -73.7667 143° Southeast 158 182 2,100 -450 Descending New York TRACON
Sat 01:59:21 PM 41.1167 -73.7500 159° South 122 140 1,500 -600 Descending New York TRACON
Sat 02:00:21 PM 41.0833 -73.7167 143° Southeast 119 137 900 -600 Descending New York TRACON

Login

Don't have an account? Register now (free) for customized features, flight alerts, and more!